Terminal Aerodrome Forecast
Issued by NWS

Home | Current Version | Previous Version | Text Only | Print | Product List | Glossary On
Versions: 1 2 3 4 5 6 7 8 9 10 11 12 13 14 15 16 17 18 19 20
975
FTUS43 KAPX 121531 AAB
TAFPLN
TAF AMD
KPLN 121531Z 1216/1312 30016G27KT 1 1/2SM -SHSN BLSN VV020
     FM121800 32016G27KT 6SM -SHSN BKN050
     FM130000 33010G18KT 6SM -SHSN BKN050
     FM130500 36006KT P6SM BKN050=

USA.gov is the U.S. government's official web portal to all federal, state and local government web resources and services.